createdAt,value
2023-04-24T00:00:15.752Z,7.40
2023-04-24T00:02:47.849Z,7.50
2023-04-24T00:05:16.868Z,7.40
2023-04-24T00:07:45.381Z,7.40
2023-04-24T00:10:13.743Z,7.40
2023-04-24T00:12:41.635Z,7.30
2023-04-24T00:15:12.803Z,7.30
2023-04-24T00:17:40.785Z,7.30
2023-04-24T00:20:09.153Z,7.20
2023-04-24T00:22:37.078Z,7.20
2023-04-24T00:25:05.287Z,7.10
2023-04-24T00:27:33.290Z,7.10
2023-04-24T00:30:01.148Z,7.10
2023-04-24T00:32:30.445Z,7.10
2023-04-24T00:34:58.608Z,7.00
2023-04-24T00:37:26.520Z,7.00
2023-04-24T00:39:54.400Z,6.90
2023-04-24T00:42:22.373Z,6.90
2023-04-24T00:44:50.434Z,6.80
2023-04-24T00:47:18.905Z,7.00
2023-04-24T00:49:48.150Z,6.90
2023-04-24T00:52:18.681Z,7.00
2023-04-24T00:54:46.674Z,7.00
2023-04-24T00:57:15.705Z,6.90
2023-04-24T00:59:43.955Z,6.90
2023-04-24T01:02:12.368Z,6.80
2023-04-24T01:04:41.474Z,6.80
2023-04-24T01:07:12.464Z,6.80
2023-04-24T01:09:42.158Z,6.90
2023-04-24T01:12:10.560Z,6.90
2023-04-24T01:14:39.255Z,6.90
2023-04-24T01:17:08.290Z,6.90
2023-04-24T01:19:36.485Z,6.90
2023-04-24T01:22:05.003Z,6.90
2023-04-24T01:24:34.410Z,6.90
2023-04-24T01:27:02.260Z,6.90
2023-04-24T01:29:30.209Z,6.90
2023-04-24T01:31:59.472Z,6.90
2023-04-24T01:34:27.534Z,6.90
2023-04-24T01:36:55.680Z,6.90
2023-04-24T01:39:24.238Z,6.90
2023-04-24T01:41:53.501Z,6.90
2023-04-24T01:44:21.404Z,7.00
2023-04-24T01:46:49.348Z,7.00
2023-04-24T01:49:17.300Z,7.10
2023-04-24T01:51:45.586Z,7.10
2023-04-24T01:54:13.661Z,7.20
2023-04-24T01:56:42.616Z,7.20
2023-04-24T01:59:12.907Z,7.20
2023-04-24T02:01:40.875Z,7.40
2023-04-24T02:04:09.910Z,7.40
2023-04-24T02:06:38.192Z,7.40
2023-04-24T02:09:06.062Z,7.40
2023-04-24T02:11:33.995Z,7.50
2023-04-24T02:14:01.871Z,7.60
2023-04-24T02:16:33.234Z,7.60
2023-04-24T02:19:01.242Z,7.70
2023-04-24T02:21:29.504Z,7.70
2023-04-24T02:23:57.338Z,7.70
2023-04-24T02:26:25.850Z,7.70
2023-04-24T02:28:53.888Z,7.70
2023-04-24T02:31:21.732Z,7.70
2023-04-24T02:33:51.077Z,7.70
2023-04-24T02:36:18.904Z,7.70
2023-04-24T02:38:46.767Z,7.70
2023-04-24T02:41:14.599Z,7.70
2023-04-24T02:43:42.508Z,7.70
2023-04-24T02:46:10.481Z,7.70
2023-04-24T02:48:38.381Z,7.70
2023-04-24T02:51:08.598Z,7.70
2023-04-24T02:53:36.465Z,7.70
2023-04-24T02:56:04.354Z,7.70
2023-04-24T02:58:32.406Z,7.80
2023-04-24T03:01:00.405Z,7.80
2023-04-24T03:03:28.418Z,7.70
2023-04-24T03:05:56.729Z,7.70
2023-04-24T03:08:26.034Z,7.70
2023-04-24T03:10:53.918Z,7.70
2023-04-24T03:13:21.778Z,7.60
2023-04-24T03:15:49.680Z,7.60
2023-04-24T03:18:17.580Z,7.60
2023-04-24T03:20:47.459Z,7.60
2023-04-24T03:23:15.410Z,7.50
2023-04-24T03:25:44.821Z,7.50
2023-04-24T03:28:12.673Z,7.40
2023-04-24T03:30:40.500Z,7.40
2023-04-24T03:33:08.374Z,7.40
2023-04-24T03:35:37.226Z,7.40
2023-04-24T03:38:05.647Z,7.50
2023-04-24T03:40:34.579Z,7.40
2023-04-24T03:43:03.924Z,7.40
2023-04-24T03:45:31.798Z,7.40
2023-04-24T03:47:59.770Z,7.40
2023-04-24T03:50:30.092Z,7.40
2023-04-24T03:52:57.972Z,7.30
2023-04-24T03:55:26.021Z,7.30
2023-04-24T03:57:53.845Z,7.30
2023-04-24T04:00:23.197Z,7.20
2023-04-24T04:02:51.115Z,7.20
2023-04-24T04:05:19.152Z,7.20
2023-04-24T04:07:47.142Z,7.20
2023-04-24T04:10:15.290Z,7.30
2023-04-24T04:12:43.131Z,7.20
2023-04-24T04:15:11.354Z,7.20
2023-04-24T04:17:40.746Z,7.30
2023-04-24T04:20:10.964Z,7.30
2023-04-24T04:22:39.129Z,7.30
2023-04-24T04:25:07.585Z,7.30
2023-04-24T04:27:35.536Z,7.40
2023-04-24T04:30:05.624Z,7.50
2023-04-24T04:32:34.127Z,7.50
2023-04-24T04:35:04.572Z,7.60
2023-04-24T04:37:32.448Z,7.70
2023-04-24T04:40:00.306Z,7.70
2023-04-24T04:42:29.333Z,7.70
2023-04-24T04:44:58.557Z,7.80
2023-04-24T04:47:27.591Z,7.80
2023-04-24T04:49:55.619Z,7.90
2023-04-24T04:52:27.525Z,7.90
2023-04-24T04:54:55.563Z,8.00
2023-04-24T04:57:23.495Z,8.00
2023-04-24T04:59:51.382Z,8.00
2023-04-24T05:02:19.627Z,8.10
2023-04-24T05:04:47.612Z,8.10
2023-04-24T05:07:15.687Z,8.10
2023-04-24T05:09:45.786Z,8.20
2023-04-24T05:12:13.742Z,8.20
2023-04-24T05:14:41.605Z,8.20
2023-04-24T05:17:09.573Z,8.30
2023-04-24T05:19:38.961Z,8.30
2023-04-24T05:22:07.818Z,8.30
2023-04-24T05:24:35.927Z,8.40
2023-04-24T05:27:06.190Z,8.40
2023-04-24T05:29:34.228Z,8.50
2023-04-24T05:32:02.580Z,8.50
2023-04-24T05:34:30.470Z,8.50
2023-04-24T05:36:58.307Z,8.50
2023-04-24T05:39:26.709Z,8.50
2023-04-24T05:41:54.598Z,8.60
2023-04-24T05:44:23.912Z,8.60
2023-04-24T05:46:51.861Z,8.60
2023-04-24T05:49:19.781Z,8.70
2023-04-24T05:51:47.625Z,8.70
2023-04-24T05:54:15.567Z,8.70
2023-04-24T05:56:43.683Z,8.80
2023-04-24T05:59:11.571Z,8.80
2023-04-24T06:01:40.829Z,8.90
2023-04-24T06:04:08.948Z,8.90
2023-04-24T06:06:37.188Z,9.00
2023-04-24T06:09:05.794Z,9.00
2023-04-24T06:11:33.833Z,9.10
2023-04-24T06:14:01.674Z,9.10
2023-04-24T06:16:29.533Z,9.10
2023-04-24T06:18:59.205Z,9.20
2023-04-24T06:21:27.104Z,9.20
2023-04-24T06:23:55.006Z,9.20
2023-04-24T06:26:23.122Z,9.20
2023-04-24T06:28:51.368Z,9.30
2023-04-24T06:31:19.271Z,9.30
2023-04-24T06:33:47.164Z,9.30
2023-04-24T06:36:16.606Z,9.30
2023-04-24T06:38:44.461Z,9.40
2023-04-24T06:41:12.453Z,9.40
2023-04-24T06:43:40.301Z,9.40
2023-04-24T06:46:08.267Z,9.50
2023-04-24T06:48:36.235Z,9.60
2023-04-24T06:51:04.256Z,9.60
2023-04-24T06:53:33.454Z,9.60
2023-04-24T06:56:01.513Z,9.70
2023-04-24T06:58:29.351Z,9.80
2023-04-24T07:00:57.317Z,9.90
2023-04-24T07:03:25.702Z,9.90
2023-04-24T07:05:54.339Z,9.90
2023-04-24T07:08:23.054Z,10.00
2023-04-24T07:10:52.769Z,10.10
2023-04-24T07:13:20.663Z,10.20
2023-04-24T07:15:50.059Z,10.30
2023-04-24T07:18:18.073Z,10.40
2023-04-24T07:20:46.048Z,10.50
2023-04-24T07:23:14.114Z,10.60
2023-04-24T07:25:42.026Z,10.70
2023-04-24T07:28:11.314Z,10.70
2023-04-24T07:30:39.185Z,10.80
2023-04-24T07:35:36.423Z,10.90
2023-04-24T07:38:04.271Z,10.90
2023-04-24T07:40:32.138Z,11.00
2023-04-24T07:43:00.315Z,11.00
2023-04-24T07:45:29.620Z,11.00
2023-04-24T07:47:58.387Z,11.10
2023-04-24T07:50:26.281Z,11.10
2023-04-24T07:52:54.143Z,11.20
2023-04-24T07:55:24.185Z,11.30
2023-04-24T07:57:53.796Z,11.40
2023-04-24T08:00:22.033Z,11.50
2023-04-24T08:02:51.519Z,11.60
2023-04-24T08:05:19.639Z,11.70
2023-04-24T08:07:49.626Z,11.70
2023-04-24T08:10:17.461Z,11.80
2023-04-24T08:12:45.333Z,11.80
2023-04-24T08:15:13.215Z,11.70
2023-04-24T08:17:41.376Z,11.70
2023-04-24T08:20:14.531Z,11.60
2023-04-24T08:22:42.517Z,11.50
2023-04-24T08:25:11.001Z,11.50
2023-04-24T08:27:39.973Z,11.40
2023-04-24T08:30:08.905Z,11.40
2023-04-24T08:32:36.825Z,11.30
2023-04-24T08:35:05.020Z,11.30
2023-04-24T08:37:34.593Z,11.30
2023-04-24T08:40:02.960Z,11.40
2023-04-24T08:42:33.596Z,11.40
2023-04-24T08:45:01.742Z,11.50
2023-04-24T08:47:30.790Z,11.60
2023-04-24T08:50:00.649Z,11.60
2023-04-24T08:52:29.487Z,11.60
2023-04-24T08:54:59.005Z,11.70
2023-04-24T08:57:27.100Z,11.80
2023-04-24T08:59:55.317Z,11.90
2023-04-24T09:02:23.495Z,12.00
2023-04-24T09:04:51.901Z,12.00
2023-04-24T09:07:20.189Z,12.10
2023-04-24T09:09:48.404Z,12.20
2023-04-24T09:12:17.771Z,12.30
2023-04-24T09:14:46.609Z,12.40
2023-04-24T09:17:14.753Z,12.50
2023-04-24T09:19:43.077Z,12.60
2023-04-24T09:22:12.189Z,12.70
2023-04-24T09:24:40.603Z,12.70
2023-04-24T09:27:11.208Z,12.80
2023-04-24T09:29:40.695Z,13.00
2023-04-24T09:32:22.645Z,13.00
2023-04-24T09:34:51.382Z,13.10
2023-04-24T09:37:29.484Z,13.10
2023-04-24T09:40:09.557Z,13.10
2023-04-24T09:42:37.560Z,13.20
2023-04-24T09:47:40.683Z,13.10
2023-04-24T09:50:17.861Z,13.20
2023-04-24T09:52:48.742Z,13.30
2023-04-24T09:55:18.448Z,13.50
2023-04-24T09:57:49.836Z,13.60
2023-04-24T10:00:21.571Z,13.80
2023-04-24T10:02:52.109Z,13.90
2023-04-24T10:05:20.136Z,14.00
2023-04-24T10:07:50.031Z,14.20
2023-04-24T10:10:18.395Z,14.20
2023-04-24T10:12:46.286Z,14.30
2023-04-24T10:15:14.898Z,14.30
2023-04-24T10:17:44.533Z,14.20
2023-04-24T10:20:12.566Z,14.10
2023-04-24T10:22:40.465Z,13.60
2023-04-24T10:25:09.070Z,13.50
2023-04-24T10:27:37.099Z,13.40
2023-04-24T10:30:05.329Z,13.40
2023-04-24T10:32:33.260Z,13.40
2023-04-24T10:35:03.253Z,13.50
2023-04-24T10:37:37.222Z,13.60
2023-04-24T10:40:05.527Z,13.70
2023-04-24T10:42:33.400Z,13.90
2023-04-24T10:45:03.108Z,14.00
2023-04-24T10:47:31.431Z,14.20
2023-04-24T10:50:04.074Z,14.40
2023-04-24T10:52:45.999Z,14.40
2023-04-24T10:55:14.744Z,14.60
2023-04-24T10:58:02.653Z,14.50
2023-04-24T11:00:30.580Z,14.40
2023-04-24T11:02:58.864Z,14.60
2023-04-24T11:05:41.716Z,14.80
2023-04-24T11:08:14.573Z,14.90
2023-04-24T11:10:43.170Z,14.80
2023-04-24T11:13:12.676Z,14.70
2023-04-24T11:15:43.203Z,14.80
2023-04-24T11:18:14.855Z,14.80
2023-04-24T11:20:43.932Z,15.10
2023-04-24T11:23:14.228Z,15.30
2023-04-24T11:25:43.707Z,15.50
2023-04-24T11:28:16.835Z,15.40
2023-04-24T11:30:44.814Z,15.30
2023-04-24T11:33:12.855Z,15.20
2023-04-24T11:35:41.816Z,15.20
2023-04-24T11:40:40.561Z,15.40
2023-04-24T11:43:10.953Z,15.60
2023-04-24T11:45:38.870Z,15.70
2023-04-24T11:48:06.961Z,15.80
2023-04-24T11:50:35.254Z,15.90
2023-04-24T11:53:03.180Z,16.00
2023-04-24T11:55:31.402Z,15.70
2023-04-24T11:58:00.242Z,15.50
2023-04-24T12:00:30.914Z,15.30
2023-04-24T12:03:08.883Z,15.10
2023-04-24T12:05:37.507Z,15.10
2023-04-24T12:08:05.955Z,15.10
2023-04-24T12:10:35.588Z,15.30
2023-04-24T12:13:03.654Z,15.40
2023-04-24T12:15:33.275Z,15.50
2023-04-24T12:18:01.336Z,15.90
2023-04-24T12:20:29.750Z,16.30
2023-04-24T12:22:58.484Z,16.30
2023-04-24T12:25:27.357Z,16.20
2023-04-24T12:27:56.166Z,16.00
2023-04-24T12:30:28.218Z,15.70
2023-04-24T12:32:59.145Z,15.50
2023-04-24T12:35:29.134Z,15.20
2023-04-24T12:37:57.120Z,15.00
2023-04-24T12:40:27.299Z,14.70
2023-04-24T12:42:56.856Z,14.30
2023-04-24T12:45:26.309Z,13.90
2023-04-24T12:47:54.156Z,13.60
2023-04-24T12:50:23.441Z,13.30
2023-04-24T12:52:51.295Z,13.10
2023-04-24T12:55:19.192Z,13.00
2023-04-24T12:57:47.070Z,12.90
2023-04-24T13:00:16.031Z,12.80
2023-04-24T13:02:45.279Z,12.70
2023-04-24T13:05:14.793Z,12.70
2023-04-24T13:07:44.014Z,12.70
2023-04-24T13:10:12.146Z,12.70
2023-04-24T13:12:40.005Z,12.60
2023-04-24T13:15:08.564Z,12.60
2023-04-24T13:17:36.540Z,12.40
2023-04-24T13:20:04.805Z,12.30
2023-04-24T13:22:32.784Z,12.10
2023-04-24T13:25:02.420Z,12.00
2023-04-24T13:27:30.374Z,11.90
2023-04-24T13:29:58.278Z,11.80
2023-04-24T13:32:26.322Z,11.80
2023-04-24T13:34:54.303Z,11.80
2023-04-24T13:37:23.310Z,11.80
2023-04-24T13:39:52.325Z,11.90
2023-04-24T13:42:21.886Z,11.90
2023-04-24T13:44:49.760Z,11.90
2023-04-24T13:47:17.664Z,11.80
2023-04-24T13:49:45.487Z,11.70
2023-04-24T13:52:13.365Z,11.60
2023-04-24T13:54:41.274Z,11.60
2023-04-24T13:57:09.173Z,11.60
2023-04-24T13:59:38.434Z,11.50
2023-04-24T14:02:06.501Z,11.40
2023-04-24T14:04:34.783Z,11.40
2023-04-24T14:07:02.731Z,11.30
2023-04-24T14:09:30.624Z,11.20
2023-04-24T14:11:58.556Z,11.10
2023-04-24T14:14:26.448Z,11.00
2023-04-24T14:16:55.702Z,10.90
2023-04-24T14:19:23.607Z,11.00
2023-04-24T14:21:51.613Z,11.00
2023-04-24T14:24:19.503Z,11.10
2023-04-24T14:26:47.419Z,11.20
2023-04-24T14:29:15.623Z,11.30
2023-04-24T14:31:43.787Z,11.40
2023-04-24T14:34:13.302Z,11.50
2023-04-24T14:36:41.502Z,11.70
2023-04-24T14:39:09.440Z,11.90
2023-04-24T14:41:38.172Z,12.00
2023-04-24T14:44:06.373Z,12.00
2023-04-24T14:46:34.993Z,12.10
2023-04-24T14:49:03.027Z,12.00
2023-04-24T14:51:32.514Z,11.90
2023-04-24T14:54:00.587Z,11.80
2023-04-24T14:56:28.608Z,11.70
2023-04-24T14:58:56.977Z,11.60
2023-04-24T15:01:25.011Z,11.50
2023-04-24T15:03:53.483Z,11.50
2023-04-24T15:06:21.610Z,11.50
2023-04-24T15:08:50.952Z,11.60
2023-04-24T15:11:18.952Z,11.70
2023-04-24T15:13:47.355Z,11.90
2023-04-24T15:16:15.705Z,12.00
2023-04-24T15:18:43.749Z,12.10
2023-04-24T15:21:13.602Z,12.30
2023-04-24T15:23:41.462Z,12.40
2023-04-24T15:26:10.683Z,12.50
2023-04-24T15:28:38.606Z,12.50
2023-04-24T15:31:06.535Z,12.60
2023-04-24T15:33:34.506Z,12.70
2023-04-24T15:36:02.524Z,12.70
2023-04-24T15:38:30.516Z,12.70
2023-04-24T15:40:58.478Z,12.60
2023-04-24T15:43:27.745Z,12.60
2023-04-24T15:45:55.652Z,12.60
2023-04-24T15:48:23.537Z,12.50
2023-04-24T15:50:51.561Z,12.40
2023-04-24T15:53:22.288Z,12.40
2023-04-24T15:55:50.491Z,12.20
2023-04-24T15:58:18.441Z,12.20
2023-04-24T16:00:47.711Z,12.00
2023-04-24T16:03:15.842Z,12.00
2023-04-24T16:05:43.875Z,11.90
2023-04-24T16:08:11.704Z,11.80
2023-04-24T16:10:39.614Z,11.80
2023-04-24T16:13:07.534Z,11.60
2023-04-24T16:15:36.194Z,11.60
2023-04-24T16:18:05.655Z,11.50
2023-04-24T16:20:33.650Z,11.40
2023-04-24T16:23:01.651Z,11.30
2023-04-24T16:25:29.948Z,11.30
2023-04-24T16:27:57.921Z,11.20
2023-04-24T16:30:26.179Z,11.20
2023-04-24T16:32:54.084Z,11.10
2023-04-24T16:35:23.368Z,11.10
2023-04-24T16:37:51.292Z,11.00
2023-04-24T16:40:19.596Z,11.00
2023-04-24T16:42:48.582Z,11.00
2023-04-24T16:45:16.493Z,10.90
2023-04-24T16:47:44.393Z,10.80
2023-04-24T16:50:12.456Z,10.80
2023-04-24T16:52:42.030Z,10.70
2023-04-24T16:55:10.575Z,10.70
2023-04-24T16:57:38.605Z,10.70
2023-04-24T17:00:07.962Z,10.50
2023-04-24T17:02:36.003Z,10.50
2023-04-24T17:05:04.016Z,10.50
2023-04-24T17:07:32.137Z,10.50
2023-04-24T17:10:01.428Z,10.40
2023-04-24T17:12:29.311Z,10.40
2023-04-24T17:14:57.214Z,10.40
2023-04-24T17:17:25.537Z,10.40
2023-04-24T17:19:53.441Z,10.30
2023-04-24T17:22:21.311Z,10.30
2023-04-24T17:24:49.373Z,10.30
2023-04-24T17:27:18.631Z,10.30
2023-04-24T17:29:46.648Z,10.30
2023-04-24T17:32:14.593Z,10.20
2023-04-24T17:34:42.515Z,10.20
2023-04-24T17:37:10.461Z,10.20
2023-04-24T17:39:38.354Z,10.10
2023-04-24T17:42:06.461Z,10.10
2023-04-24T17:44:35.830Z,10.10
2023-04-24T17:47:04.842Z,10.00
2023-04-24T17:49:32.808Z,9.90
2023-04-24T17:52:00.867Z,10.00
2023-04-24T17:54:28.742Z,10.00
2023-04-24T17:56:56.626Z,9.90
2023-04-24T17:59:24.484Z,9.90
2023-04-24T18:01:54.065Z,9.90
2023-04-24T18:04:22.188Z,9.80
2023-04-24T18:06:50.234Z,9.70
2023-04-24T18:09:20.755Z,9.60
2023-04-24T18:11:49.844Z,9.60
2023-04-24T18:14:17.734Z,9.60
2023-04-24T18:16:45.657Z,9.60
2023-04-24T18:19:14.904Z,9.50
2023-04-24T18:21:42.782Z,9.40
2023-04-24T18:24:10.851Z,9.40
2023-04-24T18:26:38.730Z,9.30
2023-04-24T18:29:06.900Z,9.30
2023-04-24T18:31:35.344Z,9.20
2023-04-24T18:34:03.217Z,9.20
2023-04-24T18:36:32.680Z,9.10
2023-04-24T18:39:00.533Z,9.00
2023-04-24T18:41:28.417Z,9.00
2023-04-24T18:43:58.334Z,8.90
2023-04-24T18:46:26.327Z,8.90
2023-04-24T18:48:54.195Z,8.80
2023-04-24T18:51:22.066Z,8.80
2023-04-24T18:53:51.288Z,8.80
2023-04-24T18:56:19.394Z,8.70
2023-04-24T18:58:47.450Z,8.70
2023-04-24T19:01:15.947Z,8.70
2023-04-24T19:03:43.951Z,8.70
2023-04-24T19:06:11.880Z,8.60
2023-04-24T19:08:42.383Z,8.60
2023-04-24T19:11:11.676Z,8.60
2023-04-24T19:13:39.528Z,8.60
2023-04-24T19:16:07.385Z,8.60
2023-04-24T19:18:35.536Z,8.60
2023-04-24T19:21:03.352Z,8.60
2023-04-24T19:23:32.593Z,8.60
2023-04-24T19:26:00.493Z,8.60
2023-04-24T19:28:29.793Z,8.50
2023-04-24T19:30:58.782Z,8.50
2023-04-24T19:33:26.741Z,8.50
2023-04-24T19:35:54.580Z,8.50
2023-04-24T19:38:22.814Z,8.50
2023-04-24T19:40:50.999Z,8.40
2023-04-24T19:43:18.864Z,8.40
2023-04-24T19:45:48.123Z,8.40
2023-04-24T19:48:16.045Z,8.40
2023-04-24T19:50:44.511Z,8.40
2023-04-24T19:53:12.503Z,8.40
2023-04-24T19:55:40.363Z,8.40
2023-04-24T19:58:08.338Z,8.30
2023-04-24T20:00:36.248Z,8.30
2023-04-24T20:03:05.525Z,8.30
2023-04-24T20:05:33.573Z,8.30
2023-04-24T20:08:02.059Z,8.30
2023-04-24T20:10:29.948Z,8.30
2023-04-24T20:12:57.926Z,8.20
2023-04-24T20:15:25.838Z,8.20
2023-04-24T20:17:53.669Z,8.20
2023-04-24T20:20:23.192Z,8.10
2023-04-24T20:22:51.199Z,8.10
2023-04-24T20:25:19.124Z,8.10
2023-04-24T20:27:47.005Z,8.00
2023-04-24T20:30:15.943Z,8.00
2023-04-24T20:32:44.031Z,8.00
2023-04-24T20:35:12.098Z,7.90
2023-04-24T20:37:43.804Z,7.90
2023-04-24T20:40:14.168Z,7.80
2023-04-24T20:42:42.063Z,7.80
2023-04-24T20:45:10.394Z,7.80
2023-04-24T20:47:38.365Z,7.80
2023-04-24T20:50:07.114Z,7.80
2023-04-24T20:52:35.000Z,7.70
2023-04-24T20:55:04.684Z,7.70
2023-04-24T20:57:32.602Z,7.70
2023-04-24T21:00:00.451Z,7.70
2023-04-24T21:02:28.397Z,7.70
2023-04-24T21:04:56.358Z,7.70
2023-04-24T21:07:24.198Z,7.60
2023-04-24T21:09:52.014Z,7.60
2023-04-24T21:12:21.248Z,7.50
2023-04-24T21:14:51.023Z,7.50
2023-04-24T21:17:19.311Z,7.50
2023-04-24T21:19:47.183Z,7.40
2023-04-24T21:22:15.022Z,7.40
2023-04-24T21:24:42.880Z,7.30
2023-04-24T21:27:10.766Z,7.30
2023-04-24T21:29:40.024Z,7.30
2023-04-24T21:32:07.940Z,7.30
2023-04-24T21:34:35.891Z,7.30
2023-04-24T21:37:03.730Z,7.20
2023-04-24T21:39:31.558Z,7.20
2023-04-24T21:41:59.513Z,7.20
2023-04-24T21:44:27.400Z,7.30
2023-04-24T21:46:56.754Z,7.20
2023-04-24T21:49:24.534Z,7.20
2023-04-24T21:51:52.353Z,7.20
2023-04-24T21:54:20.708Z,7.20
2023-04-24T21:56:48.560Z,7.20
2023-04-24T21:59:16.462Z,7.20
2023-04-24T22:01:44.638Z,7.20
2023-04-24T22:04:14.069Z,7.20
2023-04-24T22:06:42.167Z,7.20
2023-04-24T22:09:10.868Z,7.10
2023-04-24T22:11:38.822Z,7.10
2023-04-24T22:14:07.231Z,7.00
2023-04-24T22:16:35.377Z,7.00
2023-04-24T22:19:04.909Z,7.00
2023-04-24T22:21:34.431Z,7.00
2023-04-24T22:24:02.290Z,7.00
2023-04-24T22:26:30.163Z,7.00
2023-04-24T22:28:58.054Z,6.90
2023-04-24T22:31:25.938Z,6.90
2023-04-24T22:33:53.912Z,6.90
2023-04-24T22:36:21.800Z,6.90
2023-04-24T22:38:51.622Z,6.90
2023-04-24T22:41:19.627Z,6.90
2023-04-24T22:43:47.721Z,6.90
2023-04-24T22:46:15.856Z,6.90
2023-04-24T22:48:44.182Z,6.90
2023-04-24T22:51:12.142Z,6.90
2023-04-24T22:53:39.998Z,6.90
2023-04-24T22:56:09.425Z,6.80
2023-04-24T22:58:37.254Z,6.80
2023-04-24T23:01:05.170Z,6.80
2023-04-24T23:03:33.659Z,6.80
2023-04-24T23:06:01.706Z,6.80
2023-04-24T23:08:30.616Z,6.70
2023-04-24T23:10:58.566Z,6.70
2023-04-24T23:13:27.977Z,6.70
2023-04-24T23:15:55.892Z,6.70
2023-04-24T23:18:23.756Z,6.60
2023-04-24T23:20:51.929Z,6.70
2023-04-24T23:23:19.884Z,6.60
2023-04-24T23:25:47.733Z,6.60
2023-04-24T23:28:15.692Z,6.60
2023-04-24T23:30:44.940Z,6.60
2023-04-24T23:33:13.980Z,6.60
2023-04-24T23:35:41.900Z,6.60
2023-04-24T23:38:09.777Z,6.60
2023-04-24T23:40:37.637Z,6.70
2023-04-24T23:43:07.974Z,6.70
2023-04-24T23:45:37.031Z,6.70
2023-04-24T23:48:06.716Z,6.80
2023-04-24T23:50:34.637Z,6.80
2023-04-24T23:53:02.681Z,6.80
2023-04-24T23:55:30.647Z,6.80
2023-04-24T23:57:58.503Z,6.80
